Startpagina
METAR-TAF:

METAR-TAF

Vliegvelden :

Vannes, Frankrijk

breedte: 47-43-19N, lengte: 2-43-41W, hoogte: 130 m

Actueel weer

Dit bericht is 18 minuten geleden gemaakt, om 16:30 UTC
Wind 9 kt uit het westen, variërend tussen het zuidwesten en het westnoordwesten
Temperatuur 19°C
Vochtigheid 78%
Druk 1014 hPa
Zicht 10 km of meer
Verspreide wolken op 2000 ft
Verspreide wolken op 4400 ft

METAR: LFRV 261630Z AUTO 26009KT 220V300 9999 SCT020 SCT044 19/15 Q1014

Tijdstip: 18:48 (16:48 UTC)


TAF: ontbreekt

Waarnemingen en weersverwachtingen van meer dan 4000 vliegvelden (METAR en TAF).

De beschikbare stations zijn de gele en rode punten op de kaart.

Ga met uw muis naar het station om de naam te zien.

Klik dan om waarnemingen en weersverwachtingen te zien.

kaart wijzigen: klik op de groene knoppen met een zwart kruis om in te zoomen, op de groene knop met een streepje om uit te zoomen of op de groene pijlen voor aangrenzende kaarten.


METAR-TAF: